createdAt,value
2022-10-05T00:00:04.803Z,42.78
2022-10-05T00:00:36.212Z,43.61
2022-10-05T00:01:07.619Z,43.11
2022-10-05T00:01:39.055Z,42.95
2022-10-05T00:02:10.521Z,43.00
2022-10-05T00:02:41.939Z,43.45
2022-10-05T00:03:13.428Z,43.54
2022-10-05T00:03:44.807Z,43.25
2022-10-05T00:04:16.283Z,43.30
2022-10-05T00:04:47.772Z,43.32
2022-10-05T00:05:19.259Z,43.11
2022-10-05T00:05:50.708Z,42.97
2022-10-05T00:06:22.122Z,42.92
2022-10-05T00:06:53.535Z,43.29
2022-10-05T00:07:24.918Z,43.53
2022-10-05T00:07:56.443Z,43.31
2022-10-05T00:08:27.832Z,43.24
2022-10-05T00:08:59.393Z,43.15
2022-10-05T00:09:30.805Z,43.57
2022-10-05T00:10:02.214Z,43.18
2022-10-05T00:10:33.603Z,42.84
2022-10-05T00:11:04.991Z,43.23
2022-10-05T00:11:36.385Z,43.02
2022-10-05T00:12:07.778Z,43.04
2022-10-05T00:12:39.221Z,43.16
2022-10-05T00:13:10.911Z,43.07
2022-10-05T00:13:42.469Z,42.95
2022-10-05T00:14:13.882Z,43.00
2022-10-05T00:14:45.268Z,43.15
2022-10-05T00:15:16.668Z,43.54
2022-10-05T00:15:48.072Z,43.22
2022-10-05T00:16:19.497Z,43.28
2022-10-05T00:16:51.329Z,43.53
2022-10-05T00:17:22.981Z,43.33
2022-10-05T00:17:54.372Z,43.58
2022-10-05T00:18:25.797Z,43.44
2022-10-05T00:18:57.191Z,43.57
2022-10-05T00:19:28.580Z,43.51
2022-10-05T00:19:59.963Z,43.43
2022-10-05T00:20:31.356Z,43.30
2022-10-05T00:21:02.746Z,43.54
2022-10-05T00:21:34.147Z,43.44
2022-10-05T00:22:05.534Z,42.97
2022-10-05T00:22:36.936Z,43.07
2022-10-05T00:23:08.328Z,43.52
2022-10-05T00:23:39.789Z,42.98
2022-10-05T00:24:11.175Z,43.30
2022-10-05T00:24:42.572Z,43.15
2022-10-05T00:25:13.965Z,43.31
2022-10-05T00:25:45.365Z,43.56
2022-10-05T00:26:16.768Z,43.24
2022-10-05T00:26:48.950Z,43.17
2022-10-05T00:27:22.249Z,43.41
2022-10-05T00:27:53.664Z,43.45
2022-10-05T00:28:25.197Z,43.37
2022-10-05T00:28:56.640Z,43.61
2022-10-05T00:29:28.052Z,43.13
2022-10-05T00:29:59.456Z,43.72
2022-10-05T00:30:30.864Z,43.30
2022-10-05T00:31:02.263Z,43.53
2022-10-05T00:31:33.684Z,43.47
2022-10-05T00:32:05.210Z,43.43
2022-10-05T00:32:36.611Z,43.02
2022-10-05T00:33:08.005Z,42.95
2022-10-05T00:33:39.512Z,43.25
2022-10-05T00:34:10.912Z,43.43
2022-10-05T00:34:42.314Z,43.31
2022-10-05T00:35:13.721Z,43.27
2022-10-05T00:35:45.121Z,43.55
2022-10-05T00:36:16.530Z,43.22
2022-10-05T00:36:48.391Z,43.28
2022-10-05T00:37:20.053Z,43.18
2022-10-05T00:37:51.452Z,43.32
2022-10-05T00:38:22.836Z,43.72
2022-10-05T00:38:54.279Z,43.28
2022-10-05T00:39:25.688Z,43.27
2022-10-05T00:39:57.078Z,43.19
2022-10-05T00:40:28.470Z,43.27
2022-10-05T00:40:59.888Z,43.03
2022-10-05T00:41:31.275Z,43.49
2022-10-05T00:42:02.678Z,43.62
2022-10-05T00:42:34.063Z,43.28
2022-10-05T00:43:05.449Z,43.41
2022-10-05T00:43:36.862Z,43.29
2022-10-05T00:44:08.344Z,43.12
2022-10-05T00:44:39.736Z,43.00
2022-10-05T00:45:11.124Z,43.70
2022-10-05T00:45:42.562Z,42.79
2022-10-05T00:46:14.061Z,43.30
2022-10-05T00:46:45.681Z,43.04
2022-10-05T00:47:17.308Z,43.79
2022-10-05T00:47:48.696Z,43.19
2022-10-05T00:48:20.102Z,43.14
2022-10-05T00:48:51.587Z,43.55
2022-10-05T00:49:23.143Z,43.41
2022-10-05T00:49:54.523Z,42.94
2022-10-05T00:50:25.930Z,43.08
2022-10-05T00:50:57.328Z,43.38
2022-10-05T00:51:28.724Z,43.32
2022-10-05T00:52:00.136Z,43.36
2022-10-05T00:52:31.547Z,43.26
2022-10-05T00:53:02.942Z,43.36
2022-10-05T00:53:34.324Z,43.21
2022-10-05T00:54:05.712Z,43.46
2022-10-05T00:54:37.210Z,43.41
2022-10-05T00:55:08.592Z,43.49
2022-10-05T00:55:40.000Z,43.38
2022-10-05T00:56:11.405Z,43.34
2022-10-05T00:56:42.948Z,43.29
2022-10-05T00:57:14.424Z,43.66
2022-10-05T00:57:45.813Z,43.13
2022-10-05T00:58:17.201Z,43.14
2022-10-05T00:58:48.685Z,43.22
2022-10-05T00:59:20.084Z,43.85
2022-10-05T00:59:51.492Z,43.28
2022-10-05T01:00:22.900Z,43.12
2022-10-05T01:00:54.349Z,43.38
2022-10-05T01:01:25.829Z,43.19
2022-10-05T01:01:57.313Z,43.73
2022-10-05T01:02:33.011Z,43.49
2022-10-05T01:03:07.308Z,43.39
2022-10-05T01:03:38.697Z,42.89
2022-10-05T01:04:10.160Z,43.31
2022-10-05T01:04:41.547Z,43.27
2022-10-05T01:05:13.079Z,43.36
2022-10-05T01:05:44.472Z,43.43
2022-10-05T01:06:15.864Z,43.19
2022-10-05T01:06:47.512Z,43.31
2022-10-05T01:07:19.165Z,43.52
2022-10-05T01:07:50.572Z,43.22
2022-10-05T01:08:21.964Z,43.17
2022-10-05T01:08:53.356Z,43.07
2022-10-05T01:09:24.735Z,43.63
2022-10-05T01:09:56.125Z,43.61
2022-10-05T01:10:27.656Z,43.25
2022-10-05T01:10:59.037Z,43.26
2022-10-05T01:11:30.432Z,43.30
2022-10-05T01:12:01.832Z,43.33
2022-10-05T01:12:33.220Z,43.68
2022-10-05T01:13:04.597Z,43.53
2022-10-05T01:13:35.983Z,43.40
2022-10-05T01:14:07.389Z,43.32
2022-10-05T01:14:38.820Z,43.47
2022-10-05T01:15:10.209Z,43.56
2022-10-05T01:15:41.711Z,43.55
2022-10-05T01:16:13.192Z,43.28
2022-10-05T01:16:44.968Z,43.24
2022-10-05T01:17:16.554Z,43.33
2022-10-05T01:17:47.941Z,43.08
2022-10-05T01:18:19.323Z,43.54
2022-10-05T01:18:50.709Z,43.33
2022-10-05T01:19:22.100Z,43.52
2022-10-05T01:19:53.485Z,43.39
2022-10-05T01:20:24.896Z,43.52
2022-10-05T01:20:56.393Z,43.41
2022-10-05T01:21:27.782Z,43.36
2022-10-05T01:21:59.177Z,43.37
2022-10-05T01:22:30.556Z,43.33
2022-10-05T01:23:01.939Z,43.41
2022-10-05T01:23:33.345Z,43.68
2022-10-05T01:24:04.750Z,43.52
2022-10-05T01:24:36.157Z,43.34
2022-10-05T01:25:07.568Z,43.44
2022-10-05T01:25:38.958Z,43.39
2022-10-05T01:26:10.373Z,43.21
2022-10-05T01:26:41.788Z,43.34
2022-10-05T01:27:13.172Z,43.40
2022-10-05T01:27:44.590Z,43.11
2022-10-05T01:28:16.032Z,43.74
2022-10-05T01:28:47.459Z,43.35
2022-10-05T01:29:18.850Z,43.31
2022-10-05T01:29:50.262Z,43.12
2022-10-05T01:30:21.663Z,43.00
2022-10-05T01:30:53.047Z,43.41
2022-10-05T01:31:24.605Z,43.33
2022-10-05T01:31:56.094Z,43.32
2022-10-05T01:32:27.523Z,43.64
2022-10-05T01:32:58.918Z,43.57
2022-10-05T01:33:30.313Z,43.08
2022-10-05T01:34:01.802Z,43.50
2022-10-05T01:34:33.179Z,43.08
2022-10-05T01:35:04.625Z,43.16
2022-10-05T01:35:36.042Z,43.39
2022-10-05T01:36:07.427Z,43.65
2022-10-05T01:36:38.880Z,43.89
2022-10-05T01:37:10.276Z,43.31
2022-10-05T01:37:41.675Z,43.41
2022-10-05T01:38:13.062Z,43.26
2022-10-05T01:38:44.453Z,43.31
2022-10-05T01:39:15.859Z,43.56
2022-10-05T01:39:47.253Z,43.38
2022-10-05T01:40:18.667Z,43.42
2022-10-05T01:40:50.047Z,43.66
2022-10-05T01:41:21.436Z,43.24
2022-10-05T01:41:52.946Z,43.27
2022-10-05T01:42:24.352Z,43.43
2022-10-05T01:42:55.781Z,43.49
2022-10-05T01:43:27.196Z,43.12
2022-10-05T01:43:58.584Z,43.11
2022-10-05T01:44:29.967Z,43.36
2022-10-05T01:45:01.354Z,43.29
2022-10-05T01:45:32.807Z,43.24
2022-10-05T01:46:04.281Z,43.39
2022-10-05T01:46:35.702Z,43.33
2022-10-05T01:47:07.193Z,43.16
2022-10-05T01:47:38.586Z,43.18
2022-10-05T01:48:10.010Z,43.79
2022-10-05T01:48:41.388Z,43.09
2022-10-05T01:49:12.777Z,43.42
2022-10-05T01:49:44.183Z,43.44
2022-10-05T01:50:15.578Z,43.57
2022-10-05T01:50:46.969Z,43.39
2022-10-05T01:51:18.347Z,43.68
2022-10-05T01:51:50.020Z,43.65
2022-10-05T01:52:21.407Z,43.68
2022-10-05T01:52:52.791Z,43.50
2022-10-05T01:53:24.220Z,43.50
2022-10-05T01:53:55.612Z,43.44
2022-10-05T01:54:27.016Z,43.38
2022-10-05T01:54:58.406Z,43.48
2022-10-05T01:55:29.829Z,43.38
2022-10-05T01:56:01.235Z,43.50
2022-10-05T01:56:32.640Z,43.28
2022-10-05T01:57:04.123Z,43.51
2022-10-05T01:57:35.512Z,43.55
2022-10-05T01:58:06.896Z,43.32
2022-10-05T01:58:38.281Z,43.13
2022-10-05T01:59:09.692Z,43.63
2022-10-05T01:59:41.081Z,43.61
2022-10-05T02:00:12.487Z,43.45
2022-10-05T02:00:43.883Z,43.68
2022-10-05T02:01:15.338Z,43.40
2022-10-05T02:01:46.858Z,43.46
2022-10-05T02:02:18.384Z,43.26
2022-10-05T02:02:49.836Z,43.78
2022-10-05T02:03:21.235Z,43.36
2022-10-05T02:03:52.636Z,43.74
2022-10-05T02:04:56.461Z,43.65
2022-10-05T02:05:15.413Z,42.99
2022-10-05T02:05:46.799Z,43.11
2022-10-05T02:06:18.189Z,43.68
2022-10-05T02:06:49.772Z,43.10
2022-10-05T02:07:21.248Z,42.93
2022-10-05T02:07:52.644Z,43.24
2022-10-05T02:08:24.059Z,43.49
2022-10-05T02:08:55.448Z,43.52
2022-10-05T02:09:26.910Z,43.15
2022-10-05T02:09:58.310Z,43.36
2022-10-05T02:10:29.691Z,43.72
2022-10-05T02:11:01.078Z,43.47
2022-10-05T02:11:32.464Z,43.44
2022-10-05T02:12:03.877Z,43.42
2022-10-05T02:12:35.303Z,43.51
2022-10-05T02:13:06.700Z,43.57
2022-10-05T02:13:38.108Z,43.34
2022-10-05T02:14:09.488Z,43.34
2022-10-05T02:14:40.872Z,43.38
2022-10-05T02:15:12.265Z,43.38
2022-10-05T02:15:43.724Z,43.44
2022-10-05T02:16:15.156Z,43.44
2022-10-05T02:16:46.724Z,43.73
2022-10-05T02:17:18.351Z,43.73
2022-10-05T02:17:49.810Z,43.80
2022-10-05T02:18:21.192Z,43.54
2022-10-05T02:18:52.583Z,43.57
2022-10-05T02:19:23.982Z,43.59
2022-10-05T02:19:55.370Z,43.79
2022-10-05T02:20:26.757Z,43.52
2022-10-05T02:20:58.168Z,43.84
2022-10-05T02:21:29.584Z,43.52
2022-10-05T02:22:00.988Z,43.48
2022-10-05T02:22:32.372Z,43.71
2022-10-05T02:23:03.942Z,43.80
2022-10-05T02:23:35.342Z,43.61
2022-10-05T02:24:06.750Z,43.92
2022-10-05T02:24:38.147Z,43.70
2022-10-05T02:25:09.542Z,43.86
2022-10-05T02:25:40.972Z,43.53
2022-10-05T02:26:12.397Z,43.78
2022-10-05T02:26:44.086Z,43.64
2022-10-05T02:27:15.766Z,43.50
2022-10-05T02:27:47.153Z,43.39
2022-10-05T02:28:18.610Z,43.69
2022-10-05T02:28:50.060Z,43.26
2022-10-05T02:29:21.469Z,43.88
2022-10-05T02:29:52.856Z,43.77
2022-10-05T02:30:24.243Z,43.64
2022-10-05T02:30:55.622Z,43.48
2022-10-05T02:31:27.074Z,43.64
2022-10-05T02:31:58.598Z,43.79
2022-10-05T02:32:30.228Z,43.93
2022-10-05T02:33:01.764Z,43.88
2022-10-05T02:33:33.153Z,43.57
2022-10-05T02:34:04.539Z,43.41
2022-10-05T02:34:35.929Z,43.63
2022-10-05T02:35:07.321Z,43.59
2022-10-05T02:35:38.716Z,43.61
2022-10-05T02:36:10.125Z,43.56
2022-10-05T02:36:41.541Z,43.50
2022-10-05T02:37:13.002Z,43.29
2022-10-05T02:37:44.432Z,43.47
2022-10-05T02:38:15.937Z,43.51
2022-10-05T02:38:47.396Z,43.57
2022-10-05T02:39:18.831Z,43.82
2022-10-05T02:39:50.221Z,43.64
2022-10-05T02:40:21.608Z,43.45
2022-10-05T02:40:52.996Z,43.93
2022-10-05T02:41:24.388Z,43.81
2022-10-05T02:41:55.772Z,43.41
2022-10-05T02:42:27.160Z,43.46
2022-10-05T02:42:58.555Z,43.37
2022-10-05T02:43:29.992Z,43.86
2022-10-05T02:44:01.376Z,43.44
2022-10-05T02:44:32.768Z,43.67
2022-10-05T02:45:04.152Z,43.66
2022-10-05T02:45:35.591Z,43.62
2022-10-05T02:46:07.102Z,43.65
2022-10-05T02:46:38.590Z,43.52
2022-10-05T02:47:09.983Z,43.61
2022-10-05T02:47:41.376Z,43.55
2022-10-05T02:48:12.756Z,43.95
2022-10-05T02:48:44.253Z,43.41
2022-10-05T02:49:15.658Z,43.36
2022-10-05T02:49:47.045Z,43.68
2022-10-05T02:50:18.460Z,43.92
2022-10-05T02:50:49.847Z,43.84
2022-10-05T02:51:21.320Z,43.48
2022-10-05T02:51:52.705Z,43.65
2022-10-05T02:52:24.097Z,43.72
2022-10-05T02:52:55.505Z,43.87
2022-10-05T02:53:26.888Z,43.58
2022-10-05T02:53:58.293Z,43.75
2022-10-05T02:54:29.715Z,43.72
2022-10-05T02:55:01.119Z,43.91
2022-10-05T02:55:32.521Z,43.59
2022-10-05T02:56:03.911Z,43.66
2022-10-05T02:56:35.316Z,43.16
2022-10-05T02:57:06.715Z,43.85
2022-10-05T02:57:38.100Z,43.71
2022-10-05T02:58:09.509Z,43.51
2022-10-05T02:58:40.901Z,43.95
2022-10-05T02:59:12.355Z,43.52
2022-10-05T02:59:43.759Z,43.39
2022-10-05T03:00:15.152Z,43.62
2022-10-05T03:00:46.598Z,43.67
2022-10-05T03:01:18.170Z,43.44
2022-10-05T03:01:49.656Z,43.71
2022-10-05T03:02:21.156Z,43.71
2022-10-05T03:02:52.609Z,44.03
2022-10-05T03:03:23.991Z,43.84
2022-10-05T03:03:55.397Z,43.58
2022-10-05T03:04:26.849Z,43.61
2022-10-05T03:04:58.252Z,43.38
2022-10-05T03:05:29.641Z,43.72
2022-10-05T03:06:01.049Z,44.04
2022-10-05T03:06:32.456Z,44.02
2022-10-05T03:07:03.866Z,44.03
2022-10-05T03:07:35.271Z,43.72
2022-10-05T03:08:06.664Z,43.42
2022-10-05T03:08:38.054Z,43.48
2022-10-05T03:09:09.542Z,44.01
2022-10-05T03:09:40.928Z,43.50
2022-10-05T03:10:12.315Z,43.71
2022-10-05T03:10:43.699Z,43.62
2022-10-05T03:11:15.101Z,43.72
2022-10-05T03:11:46.483Z,43.45
2022-10-05T03:12:17.888Z,43.52
2022-10-05T03:12:49.291Z,43.71
2022-10-05T03:13:20.680Z,44.09
2022-10-05T03:13:52.087Z,43.49
2022-10-05T03:14:23.488Z,43.76
2022-10-05T03:14:54.871Z,44.02
2022-10-05T03:15:26.260Z,43.79
2022-10-05T03:15:57.697Z,44.04
2022-10-05T03:16:29.182Z,44.04
2022-10-05T03:17:00.659Z,43.47
2022-10-05T03:17:32.055Z,43.83
2022-10-05T03:18:03.456Z,43.59
2022-10-05T03:18:34.846Z,43.72
2022-10-05T03:19:06.240Z,44.07
2022-10-05T03:19:37.656Z,43.88
2022-10-05T03:20:09.053Z,43.79
2022-10-05T03:20:40.565Z,43.60
2022-10-05T03:21:11.971Z,43.97
2022-10-05T03:21:43.371Z,44.02
2022-10-05T03:22:14.751Z,43.74
2022-10-05T03:22:46.151Z,44.07
2022-10-05T03:23:17.545Z,44.08
2022-10-05T03:23:48.927Z,44.01
2022-10-05T03:24:20.335Z,43.65
2022-10-05T03:24:51.850Z,43.78
2022-10-05T03:25:23.236Z,43.73
2022-10-05T03:25:54.620Z,43.60
2022-10-05T03:26:26.028Z,43.97
2022-10-05T03:26:57.421Z,43.87
2022-10-05T03:27:28.828Z,44.01
2022-10-05T03:28:00.272Z,43.72
2022-10-05T03:28:31.821Z,43.72
2022-10-05T03:29:03.273Z,43.78
2022-10-05T03:29:34.687Z,43.97
2022-10-05T03:30:06.222Z,43.53
2022-10-05T03:30:37.665Z,43.72
2022-10-05T03:31:09.085Z,43.64
2022-10-05T03:31:40.589Z,43.50
2022-10-05T03:32:12.037Z,43.92
2022-10-05T03:32:43.432Z,44.03
2022-10-05T03:33:14.837Z,43.77
2022-10-05T03:33:46.223Z,43.85
2022-10-05T03:34:17.607Z,43.79
2022-10-05T03:34:48.991Z,44.02
2022-10-05T03:35:20.405Z,43.82
2022-10-05T03:35:51.787Z,43.61
2022-10-05T03:36:23.168Z,43.57
2022-10-05T03:36:54.557Z,43.87
2022-10-05T03:37:25.942Z,44.01
2022-10-05T03:37:57.345Z,44.19
2022-10-05T03:38:28.743Z,43.90
2022-10-05T03:39:00.155Z,43.50
2022-10-05T03:39:31.574Z,43.57
2022-10-05T03:40:02.960Z,43.94
2022-10-05T03:40:34.383Z,44.10
2022-10-05T03:41:05.789Z,44.23
2022-10-05T03:41:37.172Z,44.20
2022-10-05T03:42:08.556Z,44.11
2022-10-05T03:42:39.946Z,43.58
2022-10-05T03:43:11.342Z,44.07
2022-10-05T03:43:42.751Z,43.96
2022-10-05T03:44:14.152Z,44.02
2022-10-05T03:44:45.536Z,43.94
2022-10-05T03:45:16.943Z,44.29
2022-10-05T03:45:48.429Z,43.77
2022-10-05T03:46:19.919Z,44.19
2022-10-05T03:46:51.384Z,43.92
2022-10-05T03:47:22.791Z,43.84
2022-10-05T03:47:56.654Z,43.92
2022-10-05T03:48:32.471Z,44.18
2022-10-05T03:49:03.855Z,43.84
2022-10-05T03:49:35.248Z,43.86
2022-10-05T03:50:06.659Z,43.72
2022-10-05T03:50:38.044Z,44.27
2022-10-05T03:51:09.453Z,43.92
2022-10-05T03:51:40.860Z,43.69
2022-10-05T03:52:12.236Z,43.80
2022-10-05T03:52:43.639Z,44.16
2022-10-05T03:53:15.015Z,44.12
2022-10-05T03:53:46.404Z,43.62
2022-10-05T03:54:17.784Z,43.94
2022-10-05T03:54:49.168Z,43.90
2022-10-05T03:55:20.549Z,43.76
2022-10-05T03:55:51.933Z,43.78
2022-10-05T03:56:23.350Z,44.07
2022-10-05T03:56:54.737Z,44.21
2022-10-05T03:57:26.125Z,43.80
2022-10-05T03:57:57.507Z,43.72
2022-10-05T03:58:28.892Z,44.17
2022-10-05T03:59:00.275Z,43.67
2022-10-05T03:59:32.756Z,44.22
2022-10-05T04:00:04.386Z,44.03
2022-10-05T04:00:35.808Z,43.98
2022-10-05T04:01:07.209Z,43.59
2022-10-05T04:01:38.801Z,44.13
2022-10-05T04:02:10.320Z,43.89
2022-10-05T04:02:41.851Z,43.98
2022-10-05T04:03:13.288Z,43.64
2022-10-05T04:03:44.695Z,43.93
2022-10-05T04:04:16.084Z,43.75
2022-10-05T04:04:47.482Z,43.90
2022-10-05T04:05:18.884Z,44.01
2022-10-05T04:05:50.278Z,43.96
2022-10-05T04:06:21.775Z,44.34
2022-10-05T04:06:53.196Z,43.80
2022-10-05T04:07:24.575Z,44.21
2022-10-05T04:07:55.957Z,43.95
2022-10-05T04:08:27.368Z,44.28
2022-10-05T04:08:58.758Z,44.33
2022-10-05T04:09:30.237Z,44.01
2022-10-05T04:10:01.634Z,44.18
2022-10-05T04:10:33.016Z,43.72
2022-10-05T04:11:04.405Z,44.03
2022-10-05T04:11:35.795Z,44.44
2022-10-05T04:12:07.272Z,44.11
2022-10-05T04:12:38.655Z,44.35
2022-10-05T04:13:10.073Z,43.72
2022-10-05T04:13:41.459Z,44.08
2022-10-05T04:14:12.839Z,43.61
2022-10-05T04:14:44.224Z,43.83
2022-10-05T04:15:18.878Z,43.71
2022-10-05T04:15:50.610Z,43.76
2022-10-05T04:16:22.137Z,43.98
2022-10-05T04:16:53.557Z,44.26
2022-10-05T04:17:24.977Z,43.90
2022-10-05T04:17:56.389Z,44.27
2022-10-05T04:18:27.794Z,44.36
2022-10-05T04:18:59.233Z,44.41
2022-10-05T04:19:30.616Z,44.35
2022-10-05T04:20:02.017Z,43.75
2022-10-05T04:20:33.408Z,44.25
2022-10-05T04:21:04.796Z,43.87
2022-10-05T04:21:36.185Z,43.96
2022-10-05T04:22:07.575Z,43.65
2022-10-05T04:22:38.971Z,43.87
2022-10-05T04:23:10.411Z,43.88
2022-10-05T04:23:41.796Z,44.38
2022-10-05T04:24:13.241Z,44.19
2022-10-05T04:24:44.653Z,44.13
2022-10-05T04:25:16.045Z,44.11
2022-10-05T04:25:47.439Z,43.93
2022-10-05T04:26:18.835Z,44.07
2022-10-05T04:26:50.221Z,44.61
2022-10-05T04:27:21.633Z,44.35
2022-10-05T04:27:53.058Z,44.10
2022-10-05T04:28:28.311Z,44.15
2022-10-05T04:29:03.281Z,44.43
2022-10-05T04:29:34.672Z,44.36
2022-10-05T04:30:06.064Z,43.79
2022-10-05T04:30:37.463Z,44.34
2022-10-05T04:31:08.923Z,43.92
2022-10-05T04:31:40.380Z,44.33
2022-10-05T04:32:11.832Z,44.10
2022-10-05T04:32:43.221Z,43.88
2022-10-05T04:33:14.637Z,44.31
2022-10-05T04:33:46.064Z,44.26
2022-10-05T04:34:17.447Z,44.34
2022-10-05T04:34:48.834Z,44.50
2022-10-05T04:35:20.228Z,44.07
2022-10-05T04:35:51.641Z,43.85
2022-10-05T04:36:23.041Z,44.28
2022-10-05T04:36:54.437Z,43.89
2022-10-05T04:37:25.824Z,44.51
2022-10-05T04:37:57.215Z,44.13
2022-10-05T04:38:28.599Z,44.08
2022-10-05T04:39:00.098Z,44.21
2022-10-05T04:39:31.495Z,44.47
2022-10-05T04:40:02.888Z,44.12
2022-10-05T04:40:34.292Z,44.19
2022-10-05T04:41:05.672Z,43.92
2022-10-05T04:41:37.061Z,44.26
2022-10-05T04:42:08.453Z,44.19
2022-10-05T04:42:39.839Z,44.19
2022-10-05T04:43:11.227Z,44.05
2022-10-05T04:43:42.613Z,43.84
2022-10-05T04:44:14.133Z,44.08
2022-10-05T04:44:45.535Z,43.96
2022-10-05T04:45:16.945Z,44.07
2022-10-05T04:45:48.345Z,43.84
2022-10-05T04:46:19.808Z,44.27
2022-10-05T04:46:51.573Z,44.38
2022-10-05T04:47:23.180Z,44.31
2022-10-05T04:47:54.564Z,43.98
2022-10-05T04:48:25.957Z,43.92
2022-10-05T04:48:57.335Z,44.53
2022-10-05T04:49:28.825Z,43.96
2022-10-05T04:50:00.224Z,44.24
2022-10-05T04:50:31.633Z,44.15
2022-10-05T04:51:03.019Z,44.42
2022-10-05T04:51:34.408Z,44.29
2022-10-05T04:52:05.793Z,44.31
2022-10-05T04:52:37.202Z,44.61
2022-10-05T04:53:08.616Z,44.26
2022-10-05T04:53:40.027Z,44.25
2022-10-05T04:54:11.635Z,44.23
2022-10-05T04:54:43.052Z,44.43
2022-10-05T04:55:14.450Z,44.14
2022-10-05T04:55:45.844Z,44.40
2022-10-05T04:56:17.232Z,44.18
2022-10-05T04:56:48.905Z,44.45
2022-10-05T04:57:20.591Z,44.30
2022-10-05T04:57:51.991Z,44.04
2022-10-05T04:58:23.381Z,44.29
2022-10-05T04:58:54.778Z,44.02
2022-10-05T04:59:26.224Z,44.23
2022-10-05T04:59:57.796Z,43.65
2022-10-05T05:00:29.200Z,43.94
2022-10-05T05:01:00.692Z,44.20
2022-10-05T05:01:32.119Z,44.07
2022-10-05T05:02:03.541Z,44.31
2022-10-05T05:02:34.927Z,43.93
2022-10-05T05:03:06.327Z,44.27
2022-10-05T05:03:37.736Z,44.20
2022-10-05T05:04:09.173Z,44.27
2022-10-05T05:04:40.677Z,44.09
2022-10-05T05:05:12.070Z,44.17
2022-10-05T05:06:05.126Z,44.01
2022-10-05T05:06:34.833Z,44.47
2022-10-05T05:07:06.248Z,43.69
2022-10-05T05:07:37.663Z,44.23
2022-10-05T05:08:09.052Z,43.93
2022-10-05T05:08:40.456Z,44.03
2022-10-05T05:09:11.845Z,44.25
2022-10-05T05:09:43.379Z,44.50
2022-10-05T05:10:14.758Z,44.55
2022-10-05T05:10:46.245Z,44.42
2022-10-05T05:11:21.185Z,44.38
2022-10-05T05:11:55.752Z,44.64
2022-10-05T05:12:27.166Z,44.55
2022-10-05T05:12:58.554Z,44.25
2022-10-05T05:13:29.943Z,44.00
2022-10-05T05:14:01.334Z,44.62
2022-10-05T05:14:32.719Z,43.70
2022-10-05T05:15:04.203Z,44.25
2022-10-05T05:15:35.589Z,44.04
2022-10-05T05:16:07.089Z,44.26
2022-10-05T05:16:38.583Z,44.48
2022-10-05T05:17:13.150Z,44.41
2022-10-05T05:17:44.793Z,44.03
2022-10-05T05:18:16.179Z,43.98
2022-10-05T05:18:47.564Z,43.71
2022-10-05T05:19:18.951Z,44.56
2022-10-05T05:19:50.336Z,44.13
2022-10-05T05:20:21.769Z,44.23
2022-10-05T05:20:53.154Z,44.22
2022-10-05T05:21:24.551Z,43.93
2022-10-05T05:21:55.961Z,44.15
2022-10-05T05:22:27.369Z,44.61
2022-10-05T05:22:58.783Z,44.38
2022-10-05T05:23:30.172Z,44.27
2022-10-05T05:24:01.559Z,44.33
2022-10-05T05:24:33.026Z,44.44
2022-10-05T05:25:04.412Z,44.22
2022-10-05T05:25:35.896Z,44.25
2022-10-05T05:26:07.279Z,44.26
2022-10-05T05:26:39.197Z,44.63
2022-10-05T05:27:10.622Z,44.47
2022-10-05T05:27:42.013Z,43.97
2022-10-05T05:28:13.537Z,44.00
2022-10-05T05:28:44.988Z,44.44
2022-10-05T05:29:16.398Z,44.54
2022-10-05T05:29:47.792Z,44.48
2022-10-05T05:30:19.209Z,44.44
2022-10-05T05:30:50.593Z,44.38
2022-10-05T05:31:22.061Z,44.08
2022-10-05T05:31:53.470Z,44.32
2022-10-05T05:32:24.848Z,44.27
2022-10-05T05:32:56.233Z,44.23
2022-10-05T05:33:27.625Z,44.28
2022-10-05T05:33:59.028Z,44.54
2022-10-05T05:34:30.445Z,44.40
2022-10-05T05:35:01.835Z,43.97
2022-10-05T05:35:33.292Z,44.46
2022-10-05T05:36:04.692Z,43.99
2022-10-05T05:36:36.077Z,44.49
2022-10-05T05:37:07.464Z,44.00
2022-10-05T05:37:38.872Z,44.44
2022-10-05T05:38:10.261Z,44.06
2022-10-05T05:38:41.643Z,44.32
2022-10-05T05:39:13.040Z,44.41
2022-10-05T05:39:44.421Z,44.16
2022-10-05T05:40:15.814Z,44.20
2022-10-05T05:40:47.261Z,44.32
2022-10-05T05:41:18.645Z,44.42
2022-10-05T05:41:50.044Z,44.29
2022-10-05T05:42:21.440Z,44.44
2022-10-05T05:42:52.839Z,44.37
2022-10-05T05:43:24.260Z,44.04
2022-10-05T05:43:55.671Z,44.51
2022-10-05T05:44:27.079Z,43.90
2022-10-05T05:44:58.466Z,44.34
2022-10-05T05:45:29.852Z,44.19
2022-10-05T05:46:01.308Z,44.11
2022-10-05T05:46:51.543Z,44.36
2022-10-05T05:47:24.094Z,44.69
2022-10-05T05:47:55.501Z,44.70
2022-10-05T05:48:26.889Z,44.35
2022-10-05T05:48:58.284Z,44.29
2022-10-05T05:49:29.701Z,44.34
2022-10-05T05:50:06.732Z,44.36
2022-10-05T05:50:38.947Z,44.54
2022-10-05T05:51:10.448Z,44.28
2022-10-05T05:51:41.836Z,44.00
2022-10-05T05:52:13.293Z,44.18
2022-10-05T05:52:45.040Z,44.43
2022-10-05T05:53:16.500Z,44.41
2022-10-05T05:53:48.176Z,44.49
2022-10-05T05:54:19.624Z,44.04
2022-10-05T05:54:52.170Z,44.61
2022-10-05T05:55:27.743Z,44.22
2022-10-05T05:56:01.654Z,44.01
2022-10-05T05:56:33.481Z,44.21
2022-10-05T05:57:05.245Z,44.62
2022-10-05T05:57:37.067Z,44.49
2022-10-05T05:58:08.532Z,44.49
2022-10-05T05:58:39.979Z,44.44
2022-10-05T05:59:11.457Z,44.38
2022-10-05T05:59:42.848Z,44.27
2022-10-05T06:00:14.263Z,44.16
2022-10-05T06:00:45.655Z,44.64
2022-10-05T06:01:32.063Z,44.08
2022-10-05T06:02:04.924Z,44.14
2022-10-05T06:02:36.600Z,44.20
2022-10-05T06:03:08.324Z,44.33
2022-10-05T06:03:39.799Z,44.22
2022-10-05T06:04:11.208Z,44.60
2022-10-05T06:04:42.601Z,44.41
2022-10-05T06:05:16.045Z,44.24
2022-10-05T06:05:49.016Z,44.34
2022-10-05T06:06:20.567Z,44.45
2022-10-05T06:06:52.232Z,44.53
2022-10-05T06:07:26.827Z,44.75
2022-10-05T06:08:01.845Z,44.72
2022-10-05T06:08:33.273Z,44.62
2022-10-05T06:09:04.679Z,44.21
2022-10-05T06:09:36.077Z,44.45
2022-10-05T06:10:07.477Z,44.31
2022-10-05T06:10:38.877Z,44.46
2022-10-05T06:11:10.542Z,44.73
2022-10-05T06:11:42.128Z,44.33
2022-10-05T06:12:13.544Z,44.53
2022-10-05T06:12:45.020Z,44.80
2022-10-05T06:13:16.434Z,44.58
2022-10-05T06:13:47.822Z,44.33
2022-10-05T06:14:19.220Z,44.73
2022-10-05T06:14:50.612Z,44.85
2022-10-05T06:15:22.008Z,44.22
2022-10-05T06:15:53.525Z,44.79
2022-10-05T06:16:25.146Z,44.25
2022-10-05T06:16:58.126Z,44.44
2022-10-05T06:17:29.528Z,44.48
2022-10-05T06:18:00.931Z,44.36
2022-10-05T06:18:32.322Z,44.32
2022-10-05T06:19:03.736Z,44.90
2022-10-05T06:19:35.120Z,44.46
2022-10-05T06:20:06.510Z,44.81
2022-10-05T06:20:38.066Z,44.52
2022-10-05T06:21:09.481Z,44.17
2022-10-05T06:21:40.863Z,44.41
2022-10-05T06:22:12.303Z,44.37
2022-10-05T06:22:43.687Z,44.33
2022-10-05T06:23:15.076Z,44.55
2022-10-05T06:23:46.475Z,44.45
2022-10-05T06:24:17.856Z,44.39
2022-10-05T06:24:49.269Z,44.72
2022-10-05T06:25:20.666Z,44.30
2022-10-05T06:25:52.068Z,44.79
2022-10-05T06:26:23.457Z,44.56
2022-10-05T06:26:54.928Z,44.64
2022-10-05T06:27:26.319Z,44.84
2022-10-05T06:27:57.855Z,44.85
2022-10-05T06:28:29.415Z,44.68
2022-10-05T06:29:00.819Z,44.88
2022-10-05T06:29:32.213Z,44.52
2022-10-05T06:30:03.600Z,44.52
2022-10-05T06:30:35.357Z,44.81
2022-10-05T06:31:06.849Z,45.06
2022-10-05T06:31:38.491Z,44.70
2022-10-05T06:32:10.243Z,44.70
2022-10-05T06:32:41.700Z,44.51
2022-10-05T06:33:13.177Z,44.51
2022-10-05T06:33:44.771Z,44.57
2022-10-05T06:34:16.284Z,44.92
2022-10-05T06:34:47.767Z,44.85
2022-10-05T06:35:19.554Z,45.01
2022-10-05T06:35:51.031Z,44.71
2022-10-05T06:36:22.611Z,44.59
2022-10-05T06:36:54.223Z,44.61
2022-10-05T06:37:26.018Z,44.88
2022-10-05T06:37:57.611Z,44.75
2022-10-05T06:38:29.394Z,44.72
2022-10-05T06:39:01.143Z,44.48
2022-10-05T06:39:32.740Z,44.84
2022-10-05T06:40:05.204Z,44.97
2022-10-05T06:40:36.884Z,44.47
2022-10-05T06:41:10.006Z,44.75
2022-10-05T06:41:41.711Z,44.87
2022-10-05T06:42:13.356Z,44.96
2022-10-05T06:42:44.838Z,44.90
2022-10-05T06:43:16.427Z,45.08
2022-10-05T06:43:48.030Z,45.03
2022-10-05T06:44:19.594Z,44.98
2022-10-05T06:44:51.655Z,44.85
2022-10-05T06:45:23.528Z,45.45
2022-10-05T06:45:55.166Z,44.79
2022-10-05T06:46:26.828Z,45.08
2022-10-05T06:46:58.546Z,45.05